sensor_id;sensor_type;location;lat;lon;timestamp;P1;durP1;ratioP1;P2;durP2;ratioP2
18695;SDS011;22617;43.690;27.956;2023-06-22T00:02:54;19.30;;;10.80;;
18695;SDS011;22617;43.690;27.956;2023-06-22T00:08:01;16.15;;;11.07;;
18695;SDS011;22617;43.690;27.956;2023-06-22T00:13:08;16.17;;;11.40;;
18695;SDS011;22617;43.690;27.956;2023-06-22T00:18:12;14.40;;;10.13;;
18695;SDS011;22617;43.690;27.956;2023-06-22T00:23:16;14.43;;;10.20;;
18695;SDS011;22617;43.690;27.956;2023-06-22T00:28:21;15.38;;;9.88;;
18695;SDS011;22617;43.690;27.956;2023-06-22T00:33:24;13.93;;;9.48;;
18695;SDS011;22617;43.690;27.956;2023-06-22T00:38:30;14.27;;;9.98;;
18695;SDS011;22617;43.690;27.956;2023-06-22T00:43:35;12.65;;;9.60;;
18695;SDS011;22617;43.690;27.956;2023-06-22T00:48:39;12.35;;;9.20;;
18695;SDS011;22617;43.690;27.956;2023-06-22T00:53:43;19.05;;;10.68;;
18695;SDS011;22617;43.690;27.956;2023-06-22T00:58:49;17.52;;;10.90;;
18695;SDS011;22617;43.690;27.956;2023-06-22T01:03:54;15.00;;;9.93;;
18695;SDS011;22617;43.690;27.956;2023-06-22T01:09:00;14.50;;;9.68;;
18695;SDS011;22617;43.690;27.956;2023-06-22T01:14:13;12.52;;;8.77;;
18695;SDS011;22617;43.690;27.956;2023-06-22T01:19:28;16.80;;;9.15;;
18695;SDS011;22617;43.690;27.956;2023-06-22T01:24:41;11.68;;;8.82;;
18695;SDS011;22617;43.690;27.956;2023-06-22T01:29:51;12.82;;;9.10;;
18695;SDS011;22617;43.690;27.956;2023-06-22T01:35:06;12.18;;;9.73;;
18695;SDS011;22617;43.690;27.956;2023-06-22T01:40:11;11.55;;;8.95;;
18695;SDS011;22617;43.690;27.956;2023-06-22T01:45:16;11.88;;;9.13;;
18695;SDS011;22617;43.690;27.956;2023-06-22T01:50:21;12.60;;;8.70;;
18695;SDS011;22617;43.690;27.956;2023-06-22T01:55:25;11.38;;;8.73;;
18695;SDS011;22617;43.690;27.956;2023-06-22T02:00:31;10.05;;;8.43;;
18695;SDS011;22617;43.690;27.956;2023-06-22T02:05:37;15.20;;;11.68;;
18695;SDS011;22617;43.690;27.956;2023-06-22T02:10:45;18.48;;;11.05;;
18695;SDS011;22617;43.690;27.956;2023-06-22T02:15:52;13.88;;;9.82;;
18695;SDS011;22617;43.690;27.956;2023-06-22T02:20:57;11.75;;;9.15;;
18695;SDS011;22617;43.690;27.956;2023-06-22T02:26:02;12.05;;;8.63;;
18695;SDS011;22617;43.690;27.956;2023-06-22T02:31:08;12.75;;;9.00;;
18695;SDS011;22617;43.690;27.956;2023-06-22T02:36:12;10.43;;;8.38;;
18695;SDS011;22617;43.690;27.956;2023-06-22T02:41:15;12.52;;;9.18;;
18695;SDS011;22617;43.690;27.956;2023-06-22T02:46:21;15.82;;;10.48;;
18695;SDS011;22617;43.690;27.956;2023-06-22T02:51:26;15.57;;;10.75;;
18695;SDS011;22617;43.690;27.956;2023-06-22T02:56:30;14.02;;;9.93;;
18695;SDS011;22617;43.690;27.956;2023-06-22T03:01:37;16.85;;;11.27;;
18695;SDS011;22617;43.690;27.956;2023-06-22T03:07:02;14.73;;;10.02;;
18695;SDS011;22617;43.690;27.956;2023-06-22T03:12:08;15.00;;;10.85;;
18695;SDS011;22617;43.690;27.956;2023-06-22T03:17:24;15.20;;;10.65;;
18695;SDS011;22617;43.690;27.956;2023-06-22T03:22:28;17.08;;;11.70;;
18695;SDS011;22617;43.690;27.956;2023-06-22T03:27:31;20.63;;;11.73;;
18695;SDS011;22617;43.690;27.956;2023-06-22T03:32:36;18.85;;;13.43;;
18695;SDS011;22617;43.690;27.956;2023-06-22T03:37:41;19.08;;;12.25;;
18695;SDS011;22617;43.690;27.956;2023-06-22T03:42:45;21.65;;;12.18;;
18695;SDS011;22617;43.690;27.956;2023-06-22T03:47:50;15.13;;;11.45;;
18695;SDS011;22617;43.690;27.956;2023-06-22T03:52:54;16.85;;;11.13;;
18695;SDS011;22617;43.690;27.956;2023-06-22T03:57:57;18.67;;;11.13;;
18695;SDS011;22617;43.690;27.956;2023-06-22T04:03:08;16.15;;;11.18;;
18695;SDS011;22617;43.690;27.956;2023-06-22T04:08:14;19.33;;;11.80;;
18695;SDS011;22617;43.690;27.956;2023-06-22T04:13:18;19.52;;;12.38;;
18695;SDS011;22617;43.690;27.956;2023-06-22T04:18:23;24.27;;;13.52;;
18695;SDS011;22617;43.690;27.956;2023-06-22T04:23:27;21.98;;;13.88;;
18695;SDS011;22617;43.690;27.956;2023-06-22T04:28:30;18.63;;;12.63;;
18695;SDS011;22617;43.690;27.956;2023-06-22T04:33:38;19.48;;;12.65;;
18695;SDS011;22617;43.690;27.956;2023-06-22T04:38:42;26.40;;;14.45;;
18695;SDS011;22617;43.690;27.956;2023-06-22T04:43:46;18.98;;;11.68;;
18695;SDS011;22617;43.690;27.956;2023-06-22T04:48:57;19.95;;;11.57;;
18695;SDS011;22617;43.690;27.956;2023-06-22T04:54:01;17.10;;;10.95;;
18695;SDS011;22617;43.690;27.956;2023-06-22T04:59:04;14.18;;;10.40;;
18695;SDS011;22617;43.690;27.956;2023-06-22T05:04:09;16.70;;;9.98;;
18695;SDS011;22617;43.690;27.956;2023-06-22T05:09:13;15.63;;;10.68;;
18695;SDS011;22617;43.690;27.956;2023-06-22T05:14:17;18.90;;;12.63;;
18695;SDS011;22617;43.690;27.956;2023-06-22T05:19:23;14.18;;;9.98;;
18695;SDS011;22617;43.690;27.956;2023-06-22T05:24:26;14.70;;;10.82;;
18695;SDS011;22617;43.690;27.956;2023-06-22T05:29:30;17.00;;;11.70;;
18695;SDS011;22617;43.690;27.956;2023-06-22T05:34:35;12.80;;;10.60;;
18695;SDS011;22617;43.690;27.956;2023-06-22T05:39:39;15.15;;;11.02;;
18695;SDS011;22617;43.690;27.956;2023-06-22T05:44:43;15.25;;;10.98;;
18695;SDS011;22617;43.690;27.956;2023-06-22T05:49:49;13.25;;;9.23;;
18695;SDS011;22617;43.690;27.956;2023-06-22T05:54:53;15.55;;;8.00;;
18695;SDS011;22617;43.690;27.956;2023-06-22T05:59:57;13.20;;;8.30;;
18695;SDS011;22617;43.690;27.956;2023-06-22T06:05:02;23.77;;;9.13;;
18695;SDS011;22617;43.690;27.956;2023-06-22T06:10:06;14.40;;;8.25;;
18695;SDS011;22617;43.690;27.956;2023-06-22T06:15:10;11.10;;;7.85;;
18695;SDS011;22617;43.690;27.956;2023-06-22T06:20:15;11.40;;;7.78;;
18695;SDS011;22617;43.690;27.956;2023-06-22T06:25:21;11.25;;;7.65;;
18695;SDS011;22617;43.690;27.956;2023-06-22T06:30:24;9.68;;;7.10;;
18695;SDS011;22617;43.690;27.956;2023-06-22T06:35:30;8.20;;;6.95;;
18695;SDS011;22617;43.690;27.956;2023-06-22T06:40:34;9.10;;;6.38;;
18695;SDS011;22617;43.690;27.956;2023-06-22T06:45:38;6.97;;;5.68;;
18695;SDS011;22617;43.690;27.956;2023-06-22T06:50:43;6.18;;;5.57;;
18695;SDS011;22617;43.690;27.956;2023-06-22T06:55:46;8.20;;;5.80;;
18695;SDS011;22617;43.690;27.956;2023-06-22T07:00:50;8.70;;;5.72;;
18695;SDS011;22617;43.690;27.956;2023-06-22T07:05:55;6.18;;;5.53;;
18695;SDS011;22617;43.690;27.956;2023-06-22T07:10:58;6.13;;;5.32;;
18695;SDS011;22617;43.690;27.956;2023-06-22T07:16:03;7.60;;;5.97;;
18695;SDS011;22617;43.690;27.956;2023-06-22T07:21:08;7.10;;;5.20;;
18695;SDS011;22617;43.690;27.956;2023-06-22T07:26:12;6.90;;;6.15;;
18695;SDS011;22617;43.690;27.956;2023-06-22T07:31:15;7.13;;;5.57;;
18695;SDS011;22617;43.690;27.956;2023-06-22T07:36:20;7.78;;;5.65;;
18695;SDS011;22617;43.690;27.956;2023-06-22T07:41:24;9.85;;;6.20;;
18695;SDS011;22617;43.690;27.956;2023-06-22T07:46:28;8.57;;;6.28;;
18695;SDS011;22617;43.690;27.956;2023-06-22T07:51:35;6.43;;;5.75;;
18695;SDS011;22617;43.690;27.956;2023-06-22T07:56:40;8.25;;;5.72;;
18695;SDS011;22617;43.690;27.956;2023-06-22T08:01:44;7.60;;;5.65;;
18695;SDS011;22617;43.690;27.956;2023-06-22T08:06:52;6.47;;;5.43;;
18695;SDS011;22617;43.690;27.956;2023-06-22T08:11:56;7.38;;;5.05;;
18695;SDS011;22617;43.690;27.956;2023-06-22T08:16:59;6.63;;;5.15;;
18695;SDS011;22617;43.690;27.956;2023-06-22T08:22:05;5.85;;;5.07;;
18695;SDS011;22617;43.690;27.956;2023-06-22T08:27:09;6.63;;;5.13;;
18695;SDS011;22617;43.690;27.956;2023-06-22T08:32:13;7.97;;;5.85;;
18695;SDS011;22617;43.690;27.956;2023-06-22T08:37:18;8.82;;;5.45;;
18695;SDS011;22617;43.690;27.956;2023-06-22T08:42:22;6.35;;;5.07;;
18695;SDS011;22617;43.690;27.956;2023-06-22T08:47:27;6.70;;;5.18;;
18695;SDS011;22617;43.690;27.956;2023-06-22T08:52:32;8.02;;;5.68;;
18695;SDS011;22617;43.690;27.956;2023-06-22T08:57:36;8.23;;;5.07;;
18695;SDS011;22617;43.690;27.956;2023-06-22T09:02:41;6.53;;;5.07;;
18695;SDS011;22617;43.690;27.956;2023-06-22T09:07:46;5.85;;;4.80;;
18695;SDS011;22617;43.690;27.956;2023-06-22T09:12:50;7.25;;;4.65;;
18695;SDS011;22617;43.690;27.956;2023-06-22T09:17:53;7.60;;;4.90;;
18695;SDS011;22617;43.690;27.956;2023-06-22T09:23:00;9.25;;;5.25;;
18695;SDS011;22617;43.690;27.956;2023-06-22T09:28:04;6.53;;;4.82;;
18695;SDS011;22617;43.690;27.956;2023-06-22T09:33:08;5.47;;;4.57;;
18695;SDS011;22617;43.690;27.956;2023-06-22T09:38:13;6.43;;;4.40;;
18695;SDS011;22617;43.690;27.956;2023-06-22T09:43:17;9.88;;;4.75;;
18695;SDS011;22617;43.690;27.956;2023-06-22T09:48:22;5.20;;;4.28;;
18695;SDS011;22617;43.690;27.956;2023-06-22T09:53:27;6.10;;;4.47;;
18695;SDS011;22617;43.690;27.956;2023-06-22T09:58:31;4.90;;;4.38;;
18695;SDS011;22617;43.690;27.956;2023-06-22T10:03:35;5.18;;;4.63;;
18695;SDS011;22617;43.690;27.956;2023-06-22T10:08:40;5.47;;;4.38;;
18695;SDS011;22617;43.690;27.956;2023-06-22T10:13:44;5.18;;;4.53;;
18695;SDS011;22617;43.690;27.956;2023-06-22T10:18:48;7.47;;;5.10;;
18695;SDS011;22617;43.690;27.956;2023-06-22T10:23:53;6.45;;;5.75;;
18695;SDS011;22617;43.690;27.956;2023-06-22T10:28:57;7.30;;;4.80;;
18695;SDS011;22617;43.690;27.956;2023-06-22T10:34:17;6.32;;;4.97;;
18695;SDS011;22617;43.690;27.956;2023-06-22T10:39:22;4.88;;;4.32;;
18695;SDS011;22617;43.690;27.956;2023-06-22T10:44:26;5.13;;;4.50;;
18695;SDS011;22617;43.690;27.956;2023-06-22T10:49:30;7.30;;;5.03;;
18695;SDS011;22617;43.690;27.956;2023-06-22T10:54:35;5.78;;;4.50;;
18695;SDS011;22617;43.690;27.956;2023-06-22T10:59:41;5.32;;;4.20;;
18695;SDS011;22617;43.690;27.956;2023-06-22T11:04:44;6.13;;;4.95;;
18695;SDS011;22617;43.690;27.956;2023-06-22T11:09:51;6.88;;;5.10;;
18695;SDS011;22617;43.690;27.956;2023-06-22T11:14:55;5.05;;;4.55;;
18695;SDS011;22617;43.690;27.956;2023-06-22T11:20:00;6.53;;;4.78;;
18695;SDS011;22617;43.690;27.956;2023-06-22T11:25:08;7.70;;;4.45;;
18695;SDS011;22617;43.690;27.956;2023-06-22T11:30:13;5.18;;;4.60;;
18695;SDS011;22617;43.690;27.956;2023-06-22T11:35:18;12.13;;;5.13;;
18695;SDS011;22617;43.690;27.956;2023-06-22T11:40:23;6.50;;;4.57;;
18695;SDS011;22617;43.690;27.956;2023-06-22T11:45:27;6.70;;;5.03;;
18695;SDS011;22617;43.690;27.956;2023-06-22T11:50:31;5.28;;;4.78;;
18695;SDS011;22617;43.690;27.956;2023-06-22T11:55:39;5.40;;;4.80;;
18695;SDS011;22617;43.690;27.956;2023-06-22T12:00:44;5.88;;;4.25;;
18695;SDS011;22617;43.690;27.956;2023-06-22T12:05:53;6.53;;;5.53;;
18695;SDS011;22617;43.690;27.956;2023-06-22T12:10:58;8.10;;;5.75;;
18695;SDS011;22617;43.690;27.956;2023-06-22T12:16:02;8.55;;;6.22;;
18695;SDS011;22617;43.690;27.956;2023-06-22T12:21:06;7.13;;;6.22;;
18695;SDS011;22617;43.690;27.956;2023-06-22T12:26:12;7.93;;;5.28;;
18695;SDS011;22617;43.690;27.956;2023-06-22T12:31:15;8.85;;;5.95;;
18695;SDS011;22617;43.690;27.956;2023-06-22T12:36:20;8.10;;;6.18;;
18695;SDS011;22617;43.690;27.956;2023-06-22T12:41:26;9.90;;;5.63;;
18695;SDS011;22617;43.690;27.956;2023-06-22T12:46:30;7.00;;;5.63;;
18695;SDS011;22617;43.690;27.956;2023-06-22T12:51:39;10.90;;;5.53;;
18695;SDS011;22617;43.690;27.956;2023-06-22T12:56:46;5.57;;;5.05;;
18695;SDS011;22617;43.690;27.956;2023-06-22T13:01:50;7.13;;;5.60;;
18695;SDS011;22617;43.690;27.956;2023-06-22T13:06:53;12.68;;;9.68;;
18695;SDS011;22617;43.690;27.956;2023-06-22T13:12:00;20.67;;;10.32;;
18695;SDS011;22617;43.690;27.956;2023-06-22T13:17:04;10.05;;;6.07;;
18695;SDS011;22617;43.690;27.956;2023-06-22T13:22:09;10.68;;;9.02;;
18695;SDS011;22617;43.690;27.956;2023-06-22T13:27:34;12.35;;;8.45;;
18695;SDS011;22617;43.690;27.956;2023-06-22T13:32:38;7.60;;;6.38;;
18695;SDS011;22617;43.690;27.956;2023-06-22T13:37:44;9.27;;;6.68;;
18695;SDS011;22617;43.690;27.956;2023-06-22T13:42:49;8.65;;;6.07;;
18695;SDS011;22617;43.690;27.956;2023-06-22T13:47:57;8.55;;;6.45;;
18695;SDS011;22617;43.690;27.956;2023-06-22T13:53:01;7.75;;;6.63;;
18695;SDS011;22617;43.690;27.956;2023-06-22T13:58:06;8.82;;;7.13;;
18695;SDS011;22617;43.690;27.956;2023-06-22T14:03:10;14.43;;;8.50;;
18695;SDS011;22617;43.690;27.956;2023-06-22T14:08:14;14.98;;;8.27;;
18695;SDS011;22617;43.690;27.956;2023-06-22T14:13:22;12.90;;;10.43;;
18695;SDS011;22617;43.690;27.956;2023-06-22T14:18:26;12.80;;;9.00;;
18695;SDS011;22617;43.690;27.956;2023-06-22T14:23:29;9.75;;;7.55;;
18695;SDS011;22617;43.690;27.956;2023-06-22T14:28:35;13.77;;;9.88;;
18695;SDS011;22617;43.690;27.956;2023-06-22T14:33:38;10.30;;;7.88;;
18695;SDS011;22617;43.690;27.956;2023-06-22T14:38:43;8.98;;;6.80;;
18695;SDS011;22617;43.690;27.956;2023-06-22T14:43:50;11.23;;;6.78;;
18695;SDS011;22617;43.690;27.956;2023-06-22T14:48:53;9.57;;;7.32;;
18695;SDS011;22617;43.690;27.956;2023-06-22T14:53:57;12.30;;;7.22;;
18695;SDS011;22617;43.690;27.956;2023-06-22T14:59:03;6.80;;;5.97;;
18695;SDS011;22617;43.690;27.956;2023-06-22T15:04:06;9.77;;;6.80;;
18695;SDS011;22617;43.690;27.956;2023-06-22T15:09:11;6.95;;;6.20;;
18695;SDS011;22617;43.690;27.956;2023-06-22T15:14:16;8.48;;;6.60;;
18695;SDS011;22617;43.690;27.956;2023-06-22T15:19:20;7.40;;;6.20;;
18695;SDS011;22617;43.690;27.956;2023-06-22T15:24:23;11.38;;;6.43;;
18695;SDS011;22617;43.690;27.956;2023-06-22T15:29:29;8.27;;;5.75;;
18695;SDS011;22617;43.690;27.956;2023-06-22T15:34:36;9.30;;;6.05;;
18695;SDS011;22617;43.690;27.956;2023-06-22T15:39:39;8.35;;;6.18;;
18695;SDS011;22617;43.690;27.956;2023-06-22T15:44:45;6.65;;;5.78;;
18695;SDS011;22617;43.690;27.956;2023-06-22T15:49:49;7.55;;;5.88;;
18695;SDS011;22617;43.690;27.956;2023-06-22T15:54:53;6.93;;;5.47;;
18695;SDS011;22617;43.690;27.956;2023-06-22T16:00:00;8.32;;;5.25;;
18695;SDS011;22617;43.690;27.956;2023-06-22T16:05:08;8.18;;;6.22;;
18695;SDS011;22617;43.690;27.956;2023-06-22T16:10:12;6.80;;;5.72;;
18695;SDS011;22617;43.690;27.956;2023-06-22T16:15:21;6.97;;;5.32;;
18695;SDS011;22617;43.690;27.956;2023-06-22T16:20:25;7.18;;;5.88;;
18695;SDS011;22617;43.690;27.956;2023-06-22T16:25:30;10.80;;;5.82;;
18695;SDS011;22617;43.690;27.956;2023-06-22T16:30:35;7.40;;;5.93;;
18695;SDS011;22617;43.690;27.956;2023-06-22T16:35:40;8.30;;;6.53;;
18695;SDS011;22617;43.690;27.956;2023-06-22T16:40:46;8.10;;;6.00;;
18695;SDS011;22617;43.690;27.956;2023-06-22T16:45:51;7.72;;;6.38;;
18695;SDS011;22617;43.690;27.956;2023-06-22T16:50:55;7.47;;;6.53;;
18695;SDS011;22617;43.690;27.956;2023-06-22T16:55:59;8.30;;;6.53;;
18695;SDS011;22617;43.690;27.956;2023-06-22T17:01:05;8.38;;;6.70;;
18695;SDS011;22617;43.690;27.956;2023-06-22T17:06:11;8.00;;;6.68;;
18695;SDS011;22617;43.690;27.956;2023-06-22T17:11:18;8.80;;;7.05;;
18695;SDS011;22617;43.690;27.956;2023-06-22T17:16:23;10.27;;;7.20;;
18695;SDS011;22617;43.690;27.956;2023-06-22T17:21:27;10.88;;;6.90;;
18695;SDS011;22617;43.690;27.956;2023-06-22T17:26:32;11.70;;;7.30;;
18695;SDS011;22617;43.690;27.956;2023-06-22T17:31:37;9.82;;;7.18;;
18695;SDS011;22617;43.690;27.956;2023-06-22T17:36:42;9.57;;;7.88;;
18695;SDS011;22617;43.690;27.956;2023-06-22T17:41:48;9.57;;;7.22;;
18695;SDS011;22617;43.690;27.956;2023-06-22T17:46:55;11.20;;;7.10;;
18695;SDS011;22617;43.690;27.956;2023-06-22T17:52:00;8.82;;;7.30;;
18695;SDS011;22617;43.690;27.956;2023-06-22T17:57:10;8.52;;;7.50;;
18695;SDS011;22617;43.690;27.956;2023-06-22T18:02:21;11.07;;;7.68;;
18695;SDS011;22617;43.690;27.956;2023-06-22T18:07:27;8.63;;;7.25;;
18695;SDS011;22617;43.690;27.956;2023-06-22T18:12:34;10.20;;;7.95;;
18695;SDS011;22617;43.690;27.956;2023-06-22T18:17:41;11.45;;;7.38;;
18695;SDS011;22617;43.690;27.956;2023-06-22T18:22:47;9.18;;;7.47;;
18695;SDS011;22617;43.690;27.956;2023-06-22T18:27:52;9.82;;;7.30;;
18695;SDS011;22617;43.690;27.956;2023-06-22T18:32:59;9.40;;;7.60;;
18695;SDS011;22617;43.690;27.956;2023-06-22T18:38:03;10.95;;;7.93;;
18695;SDS011;22617;43.690;27.956;2023-06-22T18:43:08;10.57;;;7.82;;
18695;SDS011;22617;43.690;27.956;2023-06-22T18:48:13;10.05;;;7.85;;
18695;SDS011;22617;43.690;27.956;2023-06-22T18:53:26;9.98;;;7.68;;
18695;SDS011;22617;43.690;27.956;2023-06-22T18:58:31;10.60;;;7.80;;
18695;SDS011;22617;43.690;27.956;2023-06-22T19:03:36;11.18;;;7.95;;
18695;SDS011;22617;43.690;27.956;2023-06-22T19:14:21;12.55;;;8.30;;
18695;SDS011;22617;43.690;27.956;2023-06-22T19:19:27;11.85;;;8.05;;
18695;SDS011;22617;43.690;27.956;2023-06-22T19:24:46;11.45;;;8.73;;
18695;SDS011;22617;43.690;27.956;2023-06-22T19:29:52;13.02;;;8.27;;
18695;SDS011;22617;43.690;27.956;2023-06-22T19:34:57;10.32;;;8.45;;
18695;SDS011;22617;43.690;27.956;2023-06-22T19:40:04;14.10;;;9.98;;
18695;SDS011;22617;43.690;27.956;2023-06-22T19:45:14;13.52;;;9.43;;
18695;SDS011;22617;43.690;27.956;2023-06-22T19:50:21;12.23;;;9.30;;
18695;SDS011;22617;43.690;27.956;2023-06-22T19:55:27;12.15;;;9.57;;
18695;SDS011;22617;43.690;27.956;2023-06-22T20:00:31;12.80;;;9.73;;
18695;SDS011;22617;43.690;27.956;2023-06-22T20:05:41;12.93;;;9.60;;
18695;SDS011;22617;43.690;27.956;2023-06-22T20:10:45;12.93;;;8.75;;
18695;SDS011;22617;43.690;27.956;2023-06-22T20:15:49;11.68;;;9.63;;
18695;SDS011;22617;43.690;27.956;2023-06-22T20:20:55;12.93;;;9.73;;
18695;SDS011;22617;43.690;27.956;2023-06-22T20:25:59;11.40;;;9.57;;
18695;SDS011;22617;43.690;27.956;2023-06-22T20:31:03;11.45;;;8.35;;
18695;SDS011;22617;43.690;27.956;2023-06-22T20:36:10;13.02;;;10.40;;
18695;SDS011;22617;43.690;27.956;2023-06-22T20:41:18;13.15;;;10.20;;
18695;SDS011;22617;43.690;27.956;2023-06-22T20:46:22;14.30;;;10.05;;
18695;SDS011;22617;43.690;27.956;2023-06-22T20:51:27;13.80;;;10.27;;
18695;SDS011;22617;43.690;27.956;2023-06-22T20:56:34;14.48;;;10.45;;
18695;SDS011;22617;43.690;27.956;2023-06-22T21:01:38;15.73;;;10.32;;
18695;SDS011;22617;43.690;27.956;2023-06-22T21:06:50;15.45;;;10.95;;
18695;SDS011;22617;43.690;27.956;2023-06-22T21:11:54;14.63;;;10.45;;
18695;SDS011;22617;43.690;27.956;2023-06-22T21:16:57;13.07;;;11.00;;
18695;SDS011;22617;43.690;27.956;2023-06-22T21:22:03;14.63;;;11.30;;
18695;SDS011;22617;43.690;27.956;2023-06-22T21:27:07;15.70;;;11.70;;
18695;SDS011;22617;43.690;27.956;2023-06-22T21:32:12;14.38;;;11.10;;
18695;SDS011;22617;43.690;27.956;2023-06-22T21:37:17;15.88;;;10.60;;
18695;SDS011;22617;43.690;27.956;2023-06-22T21:42:22;11.75;;;10.18;;
18695;SDS011;22617;43.690;27.956;2023-06-22T21:47:28;12.57;;;10.45;;
18695;SDS011;22617;43.690;27.956;2023-06-22T21:52:37;13.20;;;9.98;;
18695;SDS011;22617;43.690;27.956;2023-06-22T21:57:41;14.70;;;11.10;;
18695;SDS011;22617;43.690;27.956;2023-06-22T22:02:44;13.00;;;10.43;;
18695;SDS011;22617;43.690;27.956;2023-06-22T22:07:50;14.90;;;10.50;;
18695;SDS011;22617;43.690;27.956;2023-06-22T22:12:54;13.40;;;10.15;;
18695;SDS011;22617;43.690;27.956;2023-06-22T22:17:58;14.85;;;11.23;;
18695;SDS011;22617;43.690;27.956;2023-06-22T22:23:07;12.63;;;10.20;;
18695;SDS011;22617;43.690;27.956;2023-06-22T22:28:11;12.57;;;10.45;;
18695;SDS011;22617;43.690;27.956;2023-06-22T22:33:15;14.23;;;11.10;;
18695;SDS011;22617;43.690;27.956;2023-06-22T22:38:21;14.05;;;10.90;;
18695;SDS011;22617;43.690;27.956;2023-06-22T22:43:25;17.23;;;12.73;;
18695;SDS011;22617;43.690;27.956;2023-06-22T22:48:29;12.85;;;9.50;;
18695;SDS011;22617;43.690;27.956;2023-06-22T22:53:34;12.30;;;10.52;;
18695;SDS011;22617;43.690;27.956;2023-06-22T22:58:38;14.18;;;10.50;;
18695;SDS011;22617;43.690;27.956;2023-06-22T23:03:42;15.63;;;10.25;;
18695;SDS011;22617;43.690;27.956;2023-06-22T23:08:49;12.45;;;9.60;;
18695;SDS011;22617;43.690;27.956;2023-06-22T23:13:58;12.55;;;10.07;;
18695;SDS011;22617;43.690;27.956;2023-06-22T23:19:02;13.40;;;10.25;;
18695;SDS011;22617;43.690;27.956;2023-06-22T23:24:07;17.25;;;11.07;;
18695;SDS011;22617;43.690;27.956;2023-06-22T23:29:12;14.68;;;10.90;;
18695;SDS011;22617;43.690;27.956;2023-06-22T23:34:16;14.68;;;11.13;;
18695;SDS011;22617;43.690;27.956;2023-06-22T23:39:21;18.88;;;13.30;;
18695;SDS011;22617;43.690;27.956;2023-06-22T23:44:26;17.17;;;13.35;;
18695;SDS011;22617;43.690;27.956;2023-06-22T23:49:30;17.50;;;12.85;;
18695;SDS011;22617;43.690;27.956;2023-06-22T23:54:35;17.83;;;13.13;;
18695;SDS011;22617;43.690;27.956;2023-06-22T23:59:40;21.55;;;14.52;;
